Germes — UBAI6 — position and weather

sailwx.info

Track history (hours):
 
Tides and Currents Weather Stations Pressure Air Temp Water Temp Dewpoint Dewpoint Depression Visibility Wind Speed Wind Dir Waves Ship Positions

Germes

Last reported at 2018-Feb-19 21:11 UTC. Time now 2018-Feb-19 22:08 UTC.
Position N 45°17' E 036°33'.

Length 28 m; draft 2.9 m.

Type: Tug. MMSI: 273359640.

Date/timePositionNaut miles runAvg speedWind from/ knotsBaromVisibWave heightAir tempDewpointWater temp
2018-Feb-19 21:11N 45°17' E 036°33'0 0.0
2018-Feb-19 20:55N 45°17' E 036°33'0 0.0
2018-Feb-19 20:22N 45°17' E 036°33'0 0.0
2018-Feb-19 19:33N 45°17' E 036°33'0 0.1
2018-Feb-19 19:30N 45°17' E 036°33'0 0.0
2018-Feb-19 19:00N 45°17' E 036°33'0 0.0
2018-Feb-19 18:30N 45°17' E 036°33'0 0.0
2018-Feb-19 17:58N 45°17' E 036°33'0 0.0
2018-Feb-19 17:30N 45°17' E 036°33'0 0.0
2018-Feb-19 17:00N 45°17' E 036°33'0 0.0
2018-Feb-19 16:30N 45°17' E 036°33'0 0.8
2018-Feb-19 16:00N 45°17' E 036°33'3 2.9
2018-Feb-19 15:02N 45°19' E 036°30'0 3.3
2018-Feb-19 15:01N 45°19' E 036°30'1 1.7
2018-Feb-19 14:24N 45°20' E 036°29'2 6.2
2018-Feb-19 14:00N 45°18' E 036°32'2 3.3
2018-Feb-19 13:30N 45°17' E 036°33'0 0.0
2018-Feb-19 13:00N 45°17' E 036°33'0 0.0
2018-Feb-19 12:30N 45°17' E 036°33'0 0.0
2018-Feb-19 12:00N 45°17' E 036°33'2 3.6
2018-Feb-19 11:22N 45°19' E 036°30'0 0.3
2018-Feb-19 11:00N 45°19' E 036°30'0 0.2
2018-Feb-19 10:29N 45°19' E 036°30'0 0.2
2018-Feb-19 10:01N 45°19' E 036°30'0 0.2
2018-Feb-19 09:30N 45°19' E 036°30'0 0.0
2018-Feb-19 09:00N 45°19' E 036°30'0 0.0
2018-Feb-19 08:30N 45°19' E 036°30'0 0.0
2018-Feb-19 07:58N 45°19' E 036°30'0 0.0
2018-Feb-19 07:29N 45°19' E 036°30'0 0.5
2018-Feb-19 07:00N 45°19' E 036°30'0 0.1
2018-Feb-19 06:30N 45°19' E 036°30'2 4.6
2018-Feb-19 05:59N 45°17' E 036°33'0 0.0
2018-Feb-19 05:30N 45°17' E 036°33'0 0.0
2018-Feb-19 05:00N 45°17' E 036°33'0 0.0
2018-Feb-19 04:30N 45°17' E 036°33'0 0.0
2018-Feb-19 04:00N 45°17' E 036°33'0 0.0
2018-Feb-19 03:30N 45°17' E 036°33'0 0.0
2018-Feb-19 03:00N 45°17' E 036°33'0 0.0
2018-Feb-19 02:30N 45°17' E 036°33'0 0.0
2018-Feb-19 02:00N 45°17' E 036°33'0 0.0
2018-Feb-19 01:30N 45°17' E 036°33'0 0.0
2018-Feb-19 01:00N 45°17' E 036°33'0 0.0
2018-Feb-19 00:31N 45°17' E 036°33'0 0.0
2018-Feb-19 00:00N 45°17' E 036°33'0 0.0
2018-Feb-18 23:30N 45°17' E 036°33'0 0.0
2018-Feb-18 23:00N 45°17' E 036°33'0 0.0
2018-Feb-18 22:30N 45°17' E 036°33'0 0.0
2018-Feb-18 22:00N 45°17' E 036°33'0 0.0
2018-Feb-18 21:30N 45°17' E 036°33'0 0.0
2018-Feb-18 21:00N 45°17' E 036°33'0 0.0
2018-Feb-18 20:31N 45°17' E 036°33'0 0.0
2018-Feb-18 20:00N 45°17' E 036°33'0 0.0
2018-Feb-18 19:31N 45°17' E 036°33'0 0.0
2018-Feb-18 19:00N 45°17' E 036°33'0 0.0
2018-Feb-18 18:30N 45°17' E 036°33'0 0.0
2018-Feb-18 18:00N 45°17' E 036°33'0 0.0
2018-Feb-18 17:30N 45°17' E 036°33'0 0.0
2018-Feb-18 17:00N 45°17' E 036°33'0 0.0
2018-Feb-18 16:30N 45°17' E 036°33'0 0.0
2018-Feb-18 16:00N 45°17' E 036°33'0 0.0
2018-Feb-18 15:30N 45°17' E 036°33'0 0.0
2018-Feb-18 15:00N 45°17' E 036°33'0 0.0
2018-Feb-18 14:30N 45°17' E 036°33'0 0.0
2018-Feb-18 14:00N 45°17' E 036°33'0 0.0
2018-Feb-18 13:31N 45°17' E 036°33'0 0.0
2018-Feb-18 13:00N 45°17' E 036°33'0 0.0
2018-Feb-18 12:30N 45°17' E 036°33'0 0.0
2018-Feb-18 12:00N 45°17' E 036°33'0 0.0
2018-Feb-18 11:30N 45°17' E 036°33'0 0.0
2018-Feb-18 11:00N 45°17' E 036°33'0 0.0
2018-Feb-18 10:30N 45°17' E 036°33'0 0.0
2018-Feb-18 10:00N 45°17' E 036°33'0 0.0
2018-Feb-18 09:30N 45°17' E 036°33'0 0.0
2018-Feb-18 09:00N 45°17' E 036°33'0 0.0
2018-Feb-18 08:31N 45°17' E 036°33'0 0.0
2018-Feb-18 08:00N 45°17' E 036°33'0 0.0
2018-Feb-18 07:30N 45°17' E 036°33'0 0.0
2018-Feb-18 07:00N 45°17' E 036°33'0 0.0
2018-Feb-18 06:30N 45°17' E 036°33'0 0.0
2018-Feb-18 06:00N 45°17' E 036°33'0 0.0
2018-Feb-18 05:30N 45°17' E 036°33'0 0.0
2018-Feb-18 05:00N 45°17' E 036°33'0 0.0
2018-Feb-18 04:29N 45°17' E 036°33'0 0.0
2018-Feb-18 04:00N 45°17' E 036°33'0 0.0
2018-Feb-18 03:30N 45°17' E 036°33'0 0.0
2018-Feb-18 03:00N 45°17' E 036°33'0 0.0
2018-Feb-18 02:30N 45°17' E 036°33'0 0.0
2018-Feb-18 02:01N 45°17' E 036°33'0 0.0
2018-Feb-18 01:30N 45°17' E 036°33'0 0.0
2018-Feb-18 01:00N 45°17' E 036°33'0 0.0
2018-Feb-18 00:30N 45°17' E 036°33'0 0.0
2018-Feb-18 00:00N 45°17' E 036°33'0 0.0
2018-Feb-17 23:30N 45°17' E 036°33'0 0.0
2018-Feb-17 23:00N 45°17' E 036°33'0 0.0
2018-Feb-17 22:30N 45°17' E 036°33'0 0.0
2018-Feb-17 22:00N 45°17' E 036°33'0 0.0
2018-Feb-17 21:28N 45°17' E 036°33'0 0.0
2018-Feb-17 21:00N 45°17' E 036°33'0 0.0
2018-Feb-17 20:30N 45°17' E 036°33'0 0.0
2018-Feb-17 19:18N 45°17' E 036°33'0 0.0
2018-Feb-17 18:58N 45°17' E 036°33'0 0.0
2018-Feb-17 18:30N 45°17' E 036°33'0 0.0
2018-Feb-17 18:00N 45°17' E 036°33'0 0.0
2018-Feb-17 17:30N 45°17' E 036°33'0 0.0
2018-Feb-17 16:54N 45°17' E 036°33'0 0.0
2018-Feb-17 16:30N 45°17' E 036°33'0 0.1
2018-Feb-17 16:00N 45°17' E 036°33'0 0.1
2018-Feb-17 15:29N 45°17' E 036°33'3 5.7
2018-Feb-17 14:56N 45°20' E 036°30'1 2.1
2018-Feb-17 14:30N 45°20' E 036°29'2 4.5
2018-Feb-17 14:00N 45°18' E 036°31'2 3.8
2018-Feb-17 13:30N 45°17' E 036°33'0 0.0
2018-Feb-17 13:00N 45°17' E 036°33'0 0.0
2018-Feb-17 12:30N 45°17' E 036°33'0 0.0
2018-Feb-17 12:00N 45°17' E 036°33'0 0.0
2018-Feb-17 11:30N 45°17' E 036°33'0 0.0
2018-Feb-17 11:00N 45°17' E 036°33'0 0.0
2018-Feb-17 10:30N 45°17' E 036°33'0 0.0
2018-Feb-17 10:00N 45°17' E 036°33'0 0.1
2018-Feb-17 09:30N 45°17' E 036°33'3 5.2
2018-Feb-17 08:55N 45°19' E 036°30'1 2.7
2018-Feb-17 08:30N 45°20' E 036°29'0 0.1
2018-Feb-17 08:00N 45°20' E 036°29'1 2.8
2018-Feb-17 07:30N 45°19' E 036°31'3 5.3
2018-Feb-17 07:00N 45°17' E 036°33'0 0.3
2018-Feb-17 06:30N 45°17' E 036°33'0 0.0
2018-Feb-17 06:00N 45°17' E 036°33'0 0.0
2018-Feb-17 05:30N 45°17' E 036°33'0 0.0
2018-Feb-17 05:00N 45°17' E 036°33'0 0.0
2018-Feb-17 04:30N 45°17' E 036°33'0 0.0
2018-Feb-17 03:59N 45°17' E 036°33'0 0.0
2018-Feb-17 03:30N 45°17' E 036°33'0 0.0
2018-Feb-17 02:58N 45°17' E 036°33'0 0.0
2018-Feb-17 02:29N 45°17' E 036°33'0 0.0
2018-Feb-17 02:00N 45°17' E 036°33'0 0.0
2018-Feb-17 01:30N 45°17' E 036°33'0 0.0
2018-Feb-17 00:59N 45°17' E 036°33'0 0.0
2018-Feb-17 00:30N 45°17' E 036°33'0 0.0
2018-Feb-17 00:00N 45°17' E 036°33'0 0.0
2018-Feb-16 23:30N 45°17' E 036°33'0 0.0
2018-Feb-16 23:00N 45°17' E 036°33'0 0.0
2018-Feb-16 22:30N 45°17' E 036°33'0 0.0
2018-Feb-16 22:00N 45°17' E 036°33'0 0.0
2018-Feb-16 21:30N 45°17' E 036°33'0 0.0
2018-Feb-16 21:00N 45°17' E 036°33'0 0.0
2018-Feb-16 20:31N 45°17' E 036°33'0 0.0
2018-Feb-16 20:00N 45°17' E 036°33'0 0.0
2018-Feb-16 19:30N 45°17' E 036°33'0 0.0
2018-Feb-16 19:01N 45°17' E 036°33'0 0.0
2018-Feb-16 18:31N 45°17' E 036°33'0 0.0
2018-Feb-16 18:00N 45°17' E 036°33'0 0.0
2018-Feb-16 17:30N 45°17' E 036°33'0 0.0
2018-Feb-16 17:00N 45°17' E 036°33'0 0.0
2018-Feb-16 16:30N 45°17' E 036°33'0 0.0
2018-Feb-16 16:00N 45°17' E 036°33'0 0.0
2018-Feb-16 15:30N 45°17' E 036°33'0 0.0
2018-Feb-16 15:00N 45°17' E 036°33'0 0.0
2018-Feb-16 14:30N 45°17' E 036°33'3 4.2
2018-Feb-16 13:47N 45°19' E 036°30'1 3.5
2018-Feb-16 13:30N 45°20' E 036°29'2 3.1
2018-Feb-16 13:00N 45°19' E 036°30'2 3.3
2018-Feb-16 12:30N 45°20' E 036°29'2 3.0
2018-Feb-16 11:59N 45°19' E 036°30'0 0.2
2018-Feb-16 11:30N 45°18' E 036°30'0 0.1
2018-Feb-16 11:00N 45°18' E 036°30'0 0.0
2018-Feb-16 10:31N 45°18' E 036°30'0 0.0
2018-Feb-16 09:59N 45°18' E 036°30'0 0.0
2018-Feb-16 09:30N 45°18' E 036°30'0 0.0
2018-Feb-16 08:59N 45°18' E 036°30'0 0.0
2018-Feb-16 08:27N 45°18' E 036°30'2 4.3
2018-Feb-16 08:00N 45°17' E 036°33'1 1.0
2018-Feb-16 07:30N 45°17' E 036°33'0 0.0
2018-Feb-16 07:00N 45°17' E 036°33'0 0.0
2018-Feb-16 06:24N 45°17' E 036°33'0 0.0
2018-Feb-16 06:00N 45°17' E 036°33'0 0.0
2018-Feb-16 05:30N 45°17' E 036°33'0 0.0
2018-Feb-16 04:51N 45°17' E 036°33'0 0.0
2018-Feb-16 04:30N 45°17' E 036°33'0 0.0
2018-Feb-16 04:00N 45°17' E 036°33'0 0.0
2018-Feb-16 03:30N 45°17' E 036°33'0 0.0
2018-Feb-16 03:00N 45°17' E 036°33'0 0.0
2018-Feb-16 02:30N 45°17' E 036°33'0 0.0
2018-Feb-16 02:00N 45°17' E 036°33'0 0.0
2018-Feb-16 01:30N 45°17' E 036°33'0 0.0
2018-Feb-16 01:00N 45°17' E 036°33'0 0.0
2018-Feb-16 00:30N 45°17' E 036°33'0 0.0
2018-Feb-16 00:00N 45°17' E 036°33'0 0.0
2018-Feb-15 23:30N 45°17' E 036°33'0 0.0
2018-Feb-15 23:00N 45°17' E 036°33'0 0.0
2018-Feb-15 22:30N 45°17' E 036°33'0 0.0
2018-Feb-15 22:00N 45°17' E 036°33'0 0.0
2018-Feb-15 21:30N 45°17' E 036°33'0 0.0
2018-Feb-15 21:00N 45°17' E 036°33'0 0.0
2018-Feb-15 20:30N 45°17' E 036°33'0 0.0
2018-Feb-15 20:00N 45°17' E 036°33'0 0.0
2018-Feb-15 19:30N 45°17' E 036°33'0 0.0
2018-Feb-15 19:00N 45°17' E 036°33'0 0.0
2018-Feb-15 18:30N 45°17' E 036°33'0 0.0
2018-Feb-15 18:00N 45°17' E 036°33'0 0.0
2018-Feb-15 17:30N 45°17' E 036°33'0 0.0
2018-Feb-15 17:00N 45°17' E 036°33'0 0.0
2018-Feb-15 16:30N 45°17' E 036°33'1 1.7
2018-Feb-15 16:01N 45°18' E 036°32'2 2.6
2018-Feb-15 15:22N 45°18' E 036°30'0 0.0
2018-Feb-15 14:55N 45°18' E 036°30'2 3.9
2018-Feb-15 14:30N 45°18' E 036°32'1 1.6
2018-Feb-15 13:58N 45°17' E 036°33'0 0.0
2018-Feb-15 13:28N 45°17' E 036°33'0 0.0
2018-Feb-15 12:58N 45°17' E 036°33'0 0.0
2018-Feb-15 12:28N 45°17' E 036°33'0 0.0
2018-Feb-15 11:58N 45°17' E 036°33'0 0.0
2018-Feb-15 11:28N 45°17' E 036°33'0 0.0
2018-Feb-15 10:55N 45°17' E 036°33'0 0.0
2018-Feb-15 10:28N 45°17' E 036°33'0 0.0
2018-Feb-15 09:55N 45°17' E 036°33'0 0.0
2018-Feb-15 09:25N 45°17' E 036°33'0 0.0
2018-Feb-15 08:55N 45°17' E 036°33'0 0.0
2018-Feb-15 08:28N 45°17' E 036°33'0 0.0
2018-Feb-15 07:58N 45°17' E 036°33'0 0.0
2018-Feb-15 07:28N 45°17' E 036°33'0 0.0
2018-Feb-15 06:58N 45°17' E 036°33'0 0.0
2018-Feb-15 06:25N 45°17' E 036°33'1 2.6
2018-Feb-15 06:00N 45°18' E 036°32'3 5.0
2018-Feb-15 05:24N 45°20' E 036°29'0 0.3
2018-Feb-15 04:31N 45°20' E 036°29'0 5.5
2018-Feb-15 04:28N 45°20' E 036°30'2 4.3
2018-Feb-15 04:00N 45°18' E 036°31'2 2.8
2018-Feb-15 03:28N 45°17' E 036°33'0 0.0
2018-Feb-15 02:58N 45°17' E 036°33'0 0.0
2018-Feb-15 02:28N 45°17' E 036°33'0 0.0
2018-Feb-15 01:58N 45°17' E 036°33'0 0.0
2018-Feb-15 01:28N 45°17' E 036°33'0 0.0
2018-Feb-15 00:58N 45°17' E 036°33'0 0.0
2018-Feb-15 00:28N 45°17' E 036°33'0 0.0
2018-Feb-14 23:58N 45°17' E 036°33'0 0.0
2018-Feb-14 23:28N 45°17' E 036°33'0 0.0
2018-Feb-14 22:58N 45°17' E 036°33'0 0.0
2018-Feb-14 22:25N 45°17' E 036°33'0 0.0
2018-Feb-14 21:58N 45°17' E 036°33'0 0.0
2018-Feb-14 21:28N 45°17' E 036°33'0 0.0
2018-Feb-14 20:58N 45°17' E 036°33'0 0.0
2018-Feb-14 20:28N 45°17' E 036°33'0 0.0
2018-Feb-14 19:58N 45°17' E 036°33'0 0.0
2018-Feb-14 19:28N 45°17' E 036°33'0 0.0
2018-Feb-14 18:58N 45°17' E 036°33'0 0.0
2018-Feb-14 18:28N 45°17' E 036°33'0 0.0
2018-Feb-14 17:58N 45°17' E 036°33'0 0.0
2018-Feb-14 17:22N 45°17' E 036°33'0 0.0
2018-Feb-14 16:58N 45°17' E 036°33'0 0.0
2018-Feb-14 16:28N 45°17' E 036°33'0 0.0
2018-Feb-14 15:58N 45°17' E 036°33'0 0.0
2018-Feb-14 15:30N 45°17' E 036°33'2 4.3
2018-Feb-14 15:00N 45°18' E 036°30'1 0.5
2018-Feb-14 14:02N 45°18' E 036°31'0 0.0
2018-Feb-14 13:35N 45°18' E 036°31'0 0.0
2018-Feb-14 13:23N 45°18' E 036°31'0 0.0
2018-Feb-14 12:47N 45°18' E 036°31'0 0.0
2018-Feb-14 12:26N 45°18' E 036°31'0 0.0
2018-Feb-14 11:56N 45°18' E 036°31'0 0.0
2018-Feb-14 11:29N 45°18' E 036°31'0 0.0
2018-Feb-14 10:08N 45°18' E 036°31'0 1.4
2018-Feb-14 09:53N 45°18' E 036°31'1 3.6
2018-Feb-14 09:30N 45°19' E 036°30'1 0.9
2018-Feb-14 08:20N 45°20' E 036°29'0 0.3
2018-Feb-14 07:13N 45°20' E 036°29'0 0.8
2018-Feb-14 07:00N 45°20' E 036°30'0 0.0
2018-Feb-14 06:28N 45°20' E 036°30'0 0.0
2018-Feb-14 06:00N 45°20' E 036°30'1 1.5
2018-Feb-14 05:30N 45°19' E 036°30'3 5.8
2018-Feb-14 05:00N 45°17' E 036°32'0 0.2
2018-Feb-14 04:28N 45°17' E 036°33'0 0.0
2018-Feb-14 04:00N 45°17' E 036°33'0 0.0
2018-Feb-14 03:29N 45°17' E 036°33'0 0.0
2018-Feb-14 03:00N 45°17' E 036°33'0 0.0
2018-Feb-14 02:30N 45°17' E 036°33'0 0.0
2018-Feb-14 01:58N 45°17' E 036°33'0 0.0
2018-Feb-14 01:30N 45°17' E 036°33'0 0.0
2018-Feb-14 00:57N 45°17' E 036°33'0 0.0
2018-Feb-14 00:29N 45°17' E 036°33'0 0.0
2018-Feb-14 00:00N 45°17' E 036°33'0 0.0
2018-Feb-13 23:30N 45°17' E 036°33'0 0.0
2018-Feb-13 23:00N 45°17' E 036°33'0 0.0
2018-Feb-13 22:30N 45°17' E 036°33'0 0.0
2018-Feb-13 22:00N 45°17' E 036°33'0 0.0
2018-Feb-13 21:29N 45°17' E 036°33'0 0.0
2018-Feb-13 21:00N 45°17' E 036°33'0 0.0
2018-Feb-13 20:30N 45°17' E 036°33'0 0.0
2018-Feb-13 20:00N 45°17' E 036°33'0 0.0
2018-Feb-13 19:30N 45°17' E 036°33'0 0.0
2018-Feb-13 19:00N 45°17' E 036°33'0 0.0
2018-Feb-13 18:30N 45°17' E 036°33'0 0.0
2018-Feb-13 18:00N 45°17' E 036°33'0 0.0
2018-Feb-13 17:30N 45°17' E 036°33'0 0.0
2018-Feb-13 16:59N 45°17' E 036°33'0 0.0
2018-Feb-13 16:30N 45°17' E 036°33'0 0.0
2018-Feb-13 16:00N 45°17' E 036°33'0 0.0
2018-Feb-13 15:27N 45°17' E 036°33'0 0.0
2018-Feb-13 15:00N 45°17' E 036°33'0 0.0
2018-Feb-13 14:29N 45°17' E 036°33'0 0.0
2018-Feb-13 14:00N 45°17' E 036°33'0 0.1
2018-Feb-13 13:30N 45°17' E 036°33'0 0.0
2018-Feb-13 13:00N 45°17' E 036°33'0 0.0
2018-Feb-13 12:30N 45°17' E 036°33'0 0.2
2018-Feb-13 12:00N 45°17' E 036°33'0 0.0
2018-Feb-13 11:30N 45°17' E 036°33'0 0.0
2018-Feb-13 11:00N 45°17' E 036°33'0 0.0
2018-Feb-13 10:30N 45°17' E 036°33'0 0.0
2018-Feb-13 10:00N 45°17' E 036°33'0 0.1
2018-Feb-13 09:30N 45°17' E 036°33'2 4.5
2018-Feb-13 08:59N 45°19' E 036°31'1 2.8
2018-Feb-13 08:30N 45°20' E 036°29'0 0.1
2018-Feb-13 08:00N 45°20' E 036°29'0 1.0
2018-Feb-13 07:30N 45°20' E 036°30'1 2.2
2018-Feb-13 06:57N 45°18' E 036°30'0 0.3
2018-Feb-13 06:29N 45°18' E 036°31'1 1.0
2018-Feb-13 05:48N 45°18' E 036°31'1 4.7
2018-Feb-13 05:29N 45°19' E 036°30'1 2.3
2018-Feb-13 05:00N 45°20' E 036°29'0 0.0
2018-Feb-13 04:30N 45°20' E 036°29'0 0.0
2018-Feb-13 03:59N 45°20' E 036°29'0 0.0
2018-Feb-13 03:30N 45°20' E 036°29'0 0.0
2018-Feb-13 02:58N 45°20' E 036°29'0 0.0
2018-Feb-13 02:28N 45°20' E 036°29'0 0.0
2018-Feb-13 01:58N 45°20' E 036°29'0 0.0
2018-Feb-13 01:30N 45°20' E 036°29'0 0.0
2018-Feb-13 00:59N 45°20' E 036°29'0 0.0
2018-Feb-13 00:30N 45°20' E 036°29'0 0.0
2018-Feb-12 23:56N 45°20' E 036°29'0 0.0
2018-Feb-12 23:27N 45°20' E 036°29'0 0.0
2018-Feb-12 23:00N 45°20' E 036°29'0 0.0
2018-Feb-12 22:30N 45°20' E 036°29'0 0.0
2018-Feb-12 21:59N 45°20' E 036°29'0 0.0
2018-Feb-12 21:29N 45°20' E 036°29'0 0.0
2018-Feb-12 21:00N 45°20' E 036°29'0 0.0
2018-Feb-12 20:26N 45°20' E 036°29'0 0.0
2018-Feb-12 19:59N 45°20' E 036°29'0 0.0
2018-Feb-12 19:30N 45°20' E 036°29'0 0.0
2018-Feb-12 18:47N 45°20' E 036°29'0 0.0
2018-Feb-12 18:14N 45°20' E 036°29'0 0.0
2018-Feb-12 18:00N 45°20' E 036°29'0 0.0
2018-Feb-12 17:30N 45°20' E 036°29'0 0.0
2018-Feb-12 16:59N 45°20' E 036°29'0 0.0
2018-Feb-12 16:29N 45°20' E 036°29'0 0.0
2018-Feb-12 15:54N 45°20' E 036°29'0 0.0
2018-Feb-12 15:28N 45°20' E 036°29'0 0.0
2018-Feb-12 14:56N 45°20' E 036°29'0 0.0
2018-Feb-12 14:29N 45°20' E 036°29'0 0.0
2018-Feb-12 14:00N 45°20' E 036°29'0 0.0
2018-Feb-12 13:30N 45°20' E 036°29'0 0.0
2018-Feb-12 12:59N 45°20' E 036°29'0 0.0
2018-Feb-12 12:30N 45°20' E 036°29'0 0.4
2018-Feb-12 12:00N 45°20' E 036°29'1 2.1
2018-Feb-12 11:30N 45°19' E 036°30'3 5.1
2018-Feb-12 10:59N 45°17' E 036°33'1 1.1
2018-Feb-12 10:29N 45°18' E 036°32'1 2.2
2018-Feb-12 10:00N 45°18' E 036°31'1 1.1
2018-Feb-12 09:30N 45°19' E 036°30'0 0.3
2018-Feb-12 08:04N 45°18' E 036°30'0 0.5
2018-Feb-12 08:00N 45°18' E 036°30'2 3.4
2018-Feb-12 07:30N 45°18' E 036°32'1 1.8
2018-Feb-12 07:00N 45°17' E 036°33'0 0.0
2018-Feb-12 06:30N 45°17' E 036°33'0 0.0
2018-Feb-12 06:00N 45°17' E 036°33'0 0.0
2018-Feb-12 05:30N 45°17' E 036°33'0 0.0
2018-Feb-12 05:00N 45°17' E 036°33'0 0.0
2018-Feb-12 04:30N 45°17' E 036°33'0 0.0
2018-Feb-12 04:00N 45°17' E 036°33'0 0.0
2018-Feb-12 03:30N 45°17' E 036°33'0 0.0
2018-Feb-12 03:00N 45°17' E 036°33'0 0.0
2018-Feb-12 02:30N 45°17' E 036°33'0 0.0
2018-Feb-12 02:00N 45°17' E 036°33'0 0.0
2018-Feb-12 01:30N 45°17' E 036°33'0 0.0
2018-Feb-12 01:00N 45°17' E 036°33'0 0.0
2018-Feb-12 00:30N 45°17' E 036°33'0 0.0
2018-Feb-12 00:00N 45°17' E 036°33'0 0.0
2018-Feb-11 23:30N 45°17' E 036°33'0 0.0
2018-Feb-11 23:00N 45°17' E 036°33'0 0.0
2018-Feb-11 22:30N 45°17' E 036°33'0 0.0
2018-Feb-11 22:00N 45°17' E 036°33'0 0.0
2018-Feb-11 21:23N 45°17' E 036°33'0 0.0
2018-Feb-11 21:00N 45°17' E 036°33'0 0.0
2018-Feb-11 20:30N 45°17' E 036°33'0 0.0
2018-Feb-11 20:00N 45°17' E 036°33'0 0.0
2018-Feb-11 19:30N 45°17' E 036°33'0 0.0
2018-Feb-11 19:00N 45°17' E 036°33'0 0.0
2018-Feb-11 18:30N 45°17' E 036°33'0 0.0
2018-Feb-11 18:00N 45°17' E 036°33'0 0.0
2018-Feb-11 17:30N 45°17' E 036°33'0 0.0
2018-Feb-11 17:00N 45°17' E 036°33'0 0.0
2018-Feb-11 16:30N 45°17' E 036°33'0 0.0
2018-Feb-11 15:55N 45°17' E 036°33'0 0.0
2018-Feb-11 15:30N 45°17' E 036°33'0 0.0
2018-Feb-11 14:59N 45°17' E 036°33'0 0.0
2018-Feb-11 14:30N 45°17' E 036°33'0 0.0
2018-Feb-11 14:00N 45°17' E 036°33'0 0.0
2018-Feb-11 13:30N 45°17' E 036°33'0 0.0
2018-Feb-11 13:00N 45°17' E 036°33'0 0.0
2018-Feb-11 12:30N 45°17' E 036°33'0 0.0
2018-Feb-11 12:00N 45°17' E 036°33'1 1.3
2018-Feb-11 11:30N 45°18' E 036°33'3 6.1
2018-Feb-11 11:00N 45°20' E 036°29'0 0.2
2018-Feb-11 09:22N 45°20' E 036°29'0 0.3
2018-Feb-11 08:59N 45°20' E 036°29'3 6.5
2018-Feb-11 08:30N 45°18' E 036°32'1 2.2
2018-Feb-11 08:00N 45°17' E 036°33'2 4.6
2018-Feb-11 07:30N 45°18' E 036°30'0 0.9
2018-Feb-11 07:00N 45°18' E 036°31'0 0.1
2018-Feb-11 06:29N 45°18' E 036°31'0 0.0
2018-Feb-11 05:55N 45°18' E 036°31'0 0.9
2018-Feb-11 05:30N 45°18' E 036°31'2 3.3
2018-Feb-11 05:00N 45°17' E 036°33'0 0.0
2018-Feb-11 04:30N 45°17' E 036°33'0 0.0
2018-Feb-11 04:00N 45°17' E 036°33'0 0.0
2018-Feb-11 03:30N 45°17' E 036°33'0 0.0
2018-Feb-11 03:00N 45°17' E 036°33'0 0.0
2018-Feb-11 02:30N 45°17' E 036°33'0 0.0
2018-Feb-11 02:00N 45°17' E 036°33'0 0.0
2018-Feb-11 01:30N 45°17' E 036°33'0 0.0
2018-Feb-11 01:00N 45°17' E 036°33'0 0.0
2018-Feb-11 00:30N 45°17' E 036°33'0 0.0
2018-Feb-11 00:00N 45°17' E 036°33'0 0.0
2018-Feb-10 23:30N 45°17' E 036°33'0 0.0
2018-Feb-10 23:00N 45°17' E 036°33'0 0.0
2018-Feb-10 22:30N 45°17' E 036°33'0 0.0
2018-Feb-10 22:00N 45°17' E 036°33'0 0.0
2018-Feb-10 21:30N 45°17' E 036°33'0 0.0
2018-Feb-10 21:00N 45°17' E 036°33'0 0.0
2018-Feb-10 20:30N 45°17' E 036°33'0 0.0
2018-Feb-10 20:00N 45°17' E 036°33'0 0.0
2018-Feb-10 19:30N 45°17' E 036°33'0 0.0
2018-Feb-10 19:00N 45°17' E 036°33'0 0.0
2018-Feb-10 18:30N 45°17' E 036°33'0 0.0
2018-Feb-10 18:00N 45°17' E 036°33'0 0.0
2018-Feb-10 17:30N 45°17' E 036°33'0 0.0
2018-Feb-10 17:00N 45°17' E 036°33'0 0.0
2018-Feb-10 16:30N 45°17' E 036°33'0 0.0
2018-Feb-10 16:00N 45°17' E 036°33'0 0.0
2018-Feb-10 15:30N 45°17' E 036°33'0 0.0
2018-Feb-10 15:00N 45°17' E 036°33'0 0.0
2018-Feb-10 14:30N 45°17' E 036°33'0 0.0
2018-Feb-10 14:00N 45°17' E 036°33'0 0.0
2018-Feb-10 13:30N 45°17' E 036°33'3 4.4
2018-Feb-10 12:49N 45°19' E 036°30'1 2.7
2018-Feb-10 12:26N 45°20' E 036°29'0 0.0
2018-Feb-10 11:52N 45°20' E 036°29'0 0.0
2018-Feb-10 11:28N 45°20' E 036°29'0 0.0
2018-Feb-10 11:00N 45°20' E 036°29'0 0.0
2018-Feb-10 10:30N 45°20' E 036°29'0 0.0
2018-Feb-10 09:58N 45°20' E 036°29'0 0.0
2018-Feb-10 09:30N 45°20' E 036°29'0 0.0
2018-Feb-10 09:00N 45°20' E 036°29'0 0.0
2018-Feb-10 08:30N 45°20' E 036°29'0 0.0
2018-Feb-10 08:00N 45°20' E 036°29'0 0.0
2018-Feb-10 07:30N 45°20' E 036°29'1 1.8
2018-Feb-10 07:00N 45°20' E 036°30'3 6.0
2018-Feb-10 06:30N 45°17' E 036°33'0 0.8
2018-Feb-10 06:00N 45°17' E 036°33'0 0.0
2018-Feb-10 05:30N 45°17' E 036°33'0 0.0
2018-Feb-10 05:00N 45°17' E 036°33'0 0.0
2018-Feb-10 04:30N 45°17' E 036°33'0 0.0
2018-Feb-10 04:00N 45°17' E 036°33'0 0.1
2018-Feb-10 03:30N 45°17' E 036°33'0 0.0
2018-Feb-10 03:00N 45°17' E 036°33'0 0.0
2018-Feb-10 02:30N 45°17' E 036°33'0 0.1
2018-Feb-10 02:00N 45°17' E 036°33'0 0.1
2018-Feb-10 01:30N 45°17' E 036°33'0 0.0
2018-Feb-10 01:00N 45°17' E 036°33'0 0.0
2018-Feb-10 00:30N 45°17' E 036°33'0 0.0
2018-Feb-10 00:00N 45°17' E 036°33'0 0.0
2018-Feb-09 23:30N 45°17' E 036°33'0 0.0
2018-Feb-09 23:00N 45°17' E 036°33'0 0.0
2018-Feb-09 22:45N 45°17' E 036°33'0 0.0
2018-Feb-09 22:00N 45°17' E 036°33'  
Track history (hours):
 
Tides and Currents Weather Stations Pressure Air Temp Water Temp Dewpoint Dewpoint Depression Visibility Wind Speed Wind Dir Waves Ship Positions

Germes

Last reported at 2018-Feb-19 21:11 UTC. Time now 2018-Feb-19 22:08 UTC.
Position N 45°17' E 036°33'.

Length 28 m; draft 2.9 m.

Type: Tug. MMSI: 273359640.

Date/timePositionNaut miles runAvg speedWind from/ knotsBaromVisibWave heightAir tempDewpointWater temp
2018-Feb-19 21:11N 45°17' E 036°33'0 0.0
2018-Feb-19 20:55N 45°17' E 036°33'0 0.0
2018-Feb-19 20:22N 45°17' E 036°33'0 0.0
2018-Feb-19 19:33N 45°17' E 036°33'0 0.1
2018-Feb-19 19:30N 45°17' E 036°33'0 0.0
2018-Feb-19 19:00N 45°17' E 036°33'0 0.0
2018-Feb-19 18:30N 45°17' E 036°33'0 0.0
2018-Feb-19 17:58N 45°17' E 036°33'0 0.0
2018-Feb-19 17:30N 45°17' E 036°33'0 0.0
2018-Feb-19 17:00N 45°17' E 036°33'0 0.0
2018-Feb-19 16:30N 45°17' E 036°33'0 0.8
2018-Feb-19 16:00N 45°17' E 036°33'3 2.9
2018-Feb-19 15:02N 45°19' E 036°30'0 3.3
2018-Feb-19 15:01N 45°19' E 036°30'1 1.7
2018-Feb-19 14:24N 45°20' E 036°29'2 6.2
2018-Feb-19 14:00N 45°18' E 036°32'2 3.3
2018-Feb-19 13:30N 45°17' E 036°33'0 0.0
2018-Feb-19 13:00N 45°17' E 036°33'0 0.0
2018-Feb-19 12:30N 45°17' E 036°33'0 0.0
2018-Feb-19 12:00N 45°17' E 036°33'2 3.6
2018-Feb-19 11:22N 45°19' E 036°30'0 0.3
2018-Feb-19 11:00N 45°19' E 036°30'0 0.2
2018-Feb-19 10:29N 45°19' E 036°30'0 0.2
2018-Feb-19 10:01N 45°19' E 036°30'0 0.2
2018-Feb-19 09:30N 45°19' E 036°30'0 0.0
2018-Feb-19 09:00N 45°19' E 036°30'0 0.0
2018-Feb-19 08:30N 45°19' E 036°30'0 0.0
2018-Feb-19 07:58N 45°19' E 036°30'0 0.0
2018-Feb-19 07:29N 45°19' E 036°30'0 0.5
2018-Feb-19 07:00N 45°19' E 036°30'0 0.1
2018-Feb-19 06:30N 45°19' E 036°30'2 4.6
2018-Feb-19 05:59N 45°17' E 036°33'0 0.0
2018-Feb-19 05:30N 45°17' E 036°33'0 0.0
2018-Feb-19 05:00N 45°17' E 036°33'0 0.0
2018-Feb-19 04:30N 45°17' E 036°33'0 0.0
2018-Feb-19 04:00N 45°17' E 036°33'0 0.0
2018-Feb-19 03:30N 45°17' E 036°33'0 0.0
2018-Feb-19 03:00N 45°17' E 036°33'0 0.0
2018-Feb-19 02:30N 45°17' E 036°33'0 0.0
2018-Feb-19 02:00N 45°17' E 036°33'0 0.0
2018-Feb-19 01:30N 45°17' E 036°33'0 0.0
2018-Feb-19 01:00N 45°17' E 036°33'0 0.0
2018-Feb-19 00:31N 45°17' E 036°33'0 0.0
2018-Feb-19 00:00N 45°17' E 036°33'0 0.0
2018-Feb-18 23:30N 45°17' E 036°33'0 0.0
2018-Feb-18 23:00N 45°17' E 036°33'0 0.0
2018-Feb-18 22:30N 45°17' E 036°33'0 0.0
2018-Feb-18 22:00N 45°17' E 036°33'0 0.0
2018-Feb-18 21:30N 45°17' E 036°33'0 0.0
2018-Feb-18 21:00N 45°17' E 036°33'0 0.0
2018-Feb-18 20:31N 45°17' E 036°33'0 0.0
2018-Feb-18 20:00N 45°17' E 036°33'0 0.0
2018-Feb-18 19:31N 45°17' E 036°33'0 0.0
2018-Feb-18 19:00N 45°17' E 036°33'0 0.0
2018-Feb-18 18:30N 45°17' E 036°33'0 0.0
2018-Feb-18 18:00N 45°17' E 036°33'0 0.0
2018-Feb-18 17:30N 45°17' E 036°33'0 0.0
2018-Feb-18 17:00N 45°17' E 036°33'0 0.0
2018-Feb-18 16:30N 45°17' E 036°33'0 0.0
2018-Feb-18 16:00N 45°17' E 036°33'0 0.0
2018-Feb-18 15:30N 45°17' E 036°33'0 0.0
2018-Feb-18 15:00N 45°17' E 036°33'0 0.0
2018-Feb-18 14:30N 45°17' E 036°33'0 0.0
2018-Feb-18 14:00N 45°17' E 036°33'0 0.0
2018-Feb-18 13:31N 45°17' E 036°33'0 0.0
2018-Feb-18 13:00N 45°17' E 036°33'0 0.0
2018-Feb-18 12:30N 45°17' E 036°33'0 0.0
2018-Feb-18 12:00N 45°17' E 036°33'0 0.0
2018-Feb-18 11:30N 45°17' E 036°33'0 0.0
2018-Feb-18 11:00N 45°17' E 036°33'0 0.0
2018-Feb-18 10:30N 45°17' E 036°33'0 0.0
2018-Feb-18 10:00N 45°17' E 036°33'0 0.0
2018-Feb-18 09:30N 45°17' E 036°33'0 0.0
2018-Feb-18 09:00N 45°17' E 036°33'0 0.0
2018-Feb-18 08:31N 45°17' E 036°33'0 0.0
2018-Feb-18 08:00N 45°17' E 036°33'0 0.0
2018-Feb-18 07:30N 45°17' E 036°33'0 0.0
2018-Feb-18 07:00N 45°17' E 036°33'0 0.0
2018-Feb-18 06:30N 45°17' E 036°33'0 0.0
2018-Feb-18 06:00N 45°17' E 036°33'0 0.0
2018-Feb-18 05:30N 45°17' E 036°33'0 0.0
2018-Feb-18 05:00N 45°17' E 036°33'0 0.0
2018-Feb-18 04:29N 45°17' E 036°33'0 0.0
2018-Feb-18 04:00N 45°17' E 036°33'0 0.0
2018-Feb-18 03:30N 45°17' E 036°33'0 0.0
2018-Feb-18 03:00N 45°17' E 036°33'0 0.0
2018-Feb-18 02:30N 45°17' E 036°33'0 0.0
2018-Feb-18 02:01N 45°17' E 036°33'0 0.0
2018-Feb-18 01:30N 45°17' E 036°33'0 0.0
2018-Feb-18 01:00N 45°17' E 036°33'0 0.0
2018-Feb-18 00:30N 45°17' E 036°33'0 0.0
2018-Feb-18 00:00N 45°17' E 036°33'0 0.0
2018-Feb-17 23:30N 45°17' E 036°33'0 0.0
2018-Feb-17 23:00N 45°17' E 036°33'0 0.0
2018-Feb-17 22:30N 45°17' E 036°33'0 0.0
2018-Feb-17 22:00N 45°17' E 036°33'0 0.0
2018-Feb-17 21:28N 45°17' E 036°33'0 0.0
2018-Feb-17 21:00N 45°17' E 036°33'0 0.0
2018-Feb-17 20:30N 45°17' E 036°33'0 0.0
2018-Feb-17 19:18N 45°17' E 036°33'0 0.0
2018-Feb-17 18:58N 45°17' E 036°33'0 0.0
2018-Feb-17 18:30N 45°17' E 036°33'0 0.0
2018-Feb-17 18:00N 45°17' E 036°33'0 0.0
2018-Feb-17 17:30N 45°17' E 036°33'0 0.0
2018-Feb-17 16:54N 45°17' E 036°33'0 0.0
2018-Feb-17 16:30N 45°17' E 036°33'0 0.1
2018-Feb-17 16:00N 45°17' E 036°33'0 0.1
2018-Feb-17 15:29N 45°17' E 036°33'3 5.7
2018-Feb-17 14:56N 45°20' E 036°30'1 2.1
2018-Feb-17 14:30N 45°20' E 036°29'2 4.5
2018-Feb-17 14:00N 45°18' E 036°31'2 3.8
2018-Feb-17 13:30N 45°17' E 036°33'0 0.0
2018-Feb-17 13:00N 45°17' E 036°33'0 0.0
2018-Feb-17 12:30N 45°17' E 036°33'0 0.0
2018-Feb-17 12:00N 45°17' E 036°33'0 0.0
2018-Feb-17 11:30N 45°17' E 036°33'0 0.0
2018-Feb-17 11:00N 45°17' E 036°33'0 0.0
2018-Feb-17 10:30N 45°17' E 036°33'0 0.0
2018-Feb-17 10:00N 45°17' E 036°33'0 0.1
2018-Feb-17 09:30N 45°17' E 036°33'3 5.2
2018-Feb-17 08:55N 45°19' E 036°30'1 2.7
2018-Feb-17 08:30N 45°20' E 036°29'0 0.1
2018-Feb-17 08:00N 45°20' E 036°29'1 2.8
2018-Feb-17 07:30N 45°19' E 036°31'3 5.3
2018-Feb-17 07:00N 45°17' E 036°33'0 0.3
2018-Feb-17 06:30N 45°17' E 036°33'0 0.0
2018-Feb-17 06:00N 45°17' E 036°33'0 0.0
2018-Feb-17 05:30N 45°17' E 036°33'0 0.0
2018-Feb-17 05:00N 45°17' E 036°33'0 0.0
2018-Feb-17 04:30N 45°17' E 036°33'0 0.0
2018-Feb-17 03:59N 45°17' E 036°33'0 0.0
2018-Feb-17 03:30N 45°17' E 036°33'0 0.0
2018-Feb-17 02:58N 45°17' E 036°33'0 0.0
2018-Feb-17 02:29N 45°17' E 036°33'0 0.0
2018-Feb-17 02:00N 45°17' E 036°33'0 0.0
2018-Feb-17 01:30N 45°17' E 036°33'0 0.0
2018-Feb-17 00:59N 45°17' E 036°33'0 0.0
2018-Feb-17 00:30N 45°17' E 036°33'0 0.0
2018-Feb-17 00:00N 45°17' E 036°33'0 0.0
2018-Feb-16 23:30N 45°17' E 036°33'0 0.0
2018-Feb-16 23:00N 45°17' E 036°33'0 0.0
2018-Feb-16 22:30N 45°17' E 036°33'0 0.0
2018-Feb-16 22:00N 45°17' E 036°33'0 0.0
2018-Feb-16 21:30N 45°17' E 036°33'0 0.0
2018-Feb-16 21:00N 45°17' E 036°33'0 0.0
2018-Feb-16 20:31N 45°17' E 036°33'0 0.0
2018-Feb-16 20:00N 45°17' E 036°33'0 0.0
2018-Feb-16 19:30N 45°17' E 036°33'0 0.0
2018-Feb-16 19:01N 45°17' E 036°33'0 0.0
2018-Feb-16 18:31N 45°17' E 036°33'0 0.0
2018-Feb-16 18:00N 45°17' E 036°33'0 0.0
2018-Feb-16 17:30N 45°17' E 036°33'0 0.0
2018-Feb-16 17:00N 45°17' E 036°33'0 0.0
2018-Feb-16 16:30N 45°17' E 036°33'0 0.0
2018-Feb-16 16:00N 45°17' E 036°33'0 0.0
2018-Feb-16 15:30N 45°17' E 036°33'0 0.0
2018-Feb-16 15:00N 45°17' E 036°33'0 0.0
2018-Feb-16 14:30N 45°17' E 036°33'3 4.2
2018-Feb-16 13:47N 45°19' E 036°30'1 3.5
2018-Feb-16 13:30N 45°20' E 036°29'2 3.1
2018-Feb-16 13:00N 45°19' E 036°30'2 3.3
2018-Feb-16 12:30N 45°20' E 036°29'2 3.0
2018-Feb-16 11:59N 45°19' E 036°30'0 0.2
2018-Feb-16 11:30N 45°18' E 036°30'0 0.1
2018-Feb-16 11:00N 45°18' E 036°30'0 0.0
2018-Feb-16 10:31N 45°18' E 036°30'0 0.0
2018-Feb-16 09:59N 45°18' E 036°30'0 0.0
2018-Feb-16 09:30N 45°18' E 036°30'0 0.0
2018-Feb-16 08:59N 45°18' E 036°30'0 0.0
2018-Feb-16 08:27N 45°18' E 036°30'2 4.3
2018-Feb-16 08:00N 45°17' E 036°33'1 1.0
2018-Feb-16 07:30N 45°17' E 036°33'0 0.0
2018-Feb-16 07:00N 45°17' E 036°33'0 0.0
2018-Feb-16 06:24N 45°17' E 036°33'0 0.0
2018-Feb-16 06:00N 45°17' E 036°33'0 0.0
2018-Feb-16 05:30N 45°17' E 036°33'0 0.0
2018-Feb-16 04:51N 45°17' E 036°33'0 0.0
2018-Feb-16 04:30N 45°17' E 036°33'0 0.0
2018-Feb-16 04:00N 45°17' E 036°33'0 0.0
2018-Feb-16 03:30N 45°17' E 036°33'0 0.0
2018-Feb-16 03:00N 45°17' E 036°33'0 0.0
2018-Feb-16 02:30N 45°17' E 036°33'0 0.0
2018-Feb-16 02:00N 45°17' E 036°33'0 0.0
2018-Feb-16 01:30N 45°17' E 036°33'0 0.0
2018-Feb-16 01:00N 45°17' E 036°33'0 0.0
2018-Feb-16 00:30N 45°17' E 036°33'0 0.0
2018-Feb-16 00:00N 45°17' E 036°33'0 0.0
2018-Feb-15 23:30N 45°17' E 036°33'0 0.0
2018-Feb-15 23:00N 45°17' E 036°33'0 0.0
2018-Feb-15 22:30N 45°17' E 036°33'0 0.0
2018-Feb-15 22:00N 45°17' E 036°33'0 0.0
2018-Feb-15 21:30N 45°17' E 036°33'0 0.0
2018-Feb-15 21:00N 45°17' E 036°33'0 0.0
2018-Feb-15 20:30N 45°17' E 036°33'0 0.0
2018-Feb-15 20:00N 45°17' E 036°33'0 0.0
2018-Feb-15 19:30N 45°17' E 036°33'0 0.0
2018-Feb-15 19:00N 45°17' E 036°33'0 0.0
2018-Feb-15 18:30N 45°17' E 036°33'0 0.0
2018-Feb-15 18:00N 45°17' E 036°33'0 0.0
2018-Feb-15 17:30N 45°17' E 036°33'0 0.0
2018-Feb-15 17:00N 45°17' E 036°33'0 0.0
2018-Feb-15 16:30N 45°17' E 036°33'1 1.7
2018-Feb-15 16:01N 45°18' E 036°32'2 2.6
2018-Feb-15 15:22N 45°18' E 036°30'0 0.0
2018-Feb-15 14:55N 45°18' E 036°30'2 3.9
2018-Feb-15 14:30N 45°18' E 036°32'1 1.6
2018-Feb-15 13:58N 45°17' E 036°33'0 0.0
2018-Feb-15 13:28N 45°17' E 036°33'0 0.0
2018-Feb-15 12:58N 45°17' E 036°33'0 0.0
2018-Feb-15 12:28N 45°17' E 036°33'0 0.0
2018-Feb-15 11:58N 45°17' E 036°33'0 0.0
2018-Feb-15 11:28N 45°17' E 036°33'0 0.0
2018-Feb-15 10:55N 45°17' E 036°33'0 0.0
2018-Feb-15 10:28N 45°17' E 036°33'0 0.0
2018-Feb-15 09:55N 45°17' E 036°33'0 0.0
2018-Feb-15 09:25N 45°17' E 036°33'0 0.0
2018-Feb-15 08:55N 45°17' E 036°33'0 0.0
2018-Feb-15 08:28N 45°17' E 036°33'0 0.0
2018-Feb-15 07:58N 45°17' E 036°33'0 0.0
2018-Feb-15 07:28N 45°17' E 036°33'0 0.0
2018-Feb-15 06:58N 45°17' E 036°33'0 0.0
2018-Feb-15 06:25N 45°17' E 036°33'1 2.6
2018-Feb-15 06:00N 45°18' E 036°32'3 5.0
2018-Feb-15 05:24N 45°20' E 036°29'0 0.3
2018-Feb-15 04:31N 45°20' E 036°29'0 5.5
2018-Feb-15 04:28N 45°20' E 036°30'2 4.3
2018-Feb-15 04:00N 45°18' E 036°31'2 2.8
2018-Feb-15 03:28N 45°17' E 036°33'0 0.0
2018-Feb-15 02:58N 45°17' E 036°33'0 0.0
2018-Feb-15 02:28N 45°17' E 036°33'0 0.0
2018-Feb-15 01:58N 45°17' E 036°33'0 0.0
2018-Feb-15 01:28N 45°17' E 036°33'0 0.0
2018-Feb-15 00:58N 45°17' E 036°33'0 0.0
2018-Feb-15 00:28N 45°17' E 036°33'0 0.0
2018-Feb-14 23:58N 45°17' E 036°33'0 0.0
2018-Feb-14 23:28N 45°17' E 036°33'0 0.0
2018-Feb-14 22:58N 45°17' E 036°33'0 0.0
2018-Feb-14 22:25N 45°17' E 036°33'0 0.0
2018-Feb-14 21:58N 45°17' E 036°33'0 0.0
2018-Feb-14 21:28N 45°17' E 036°33'0 0.0
2018-Feb-14 20:58N 45°17' E 036°33'0 0.0
2018-Feb-14 20:28N 45°17' E 036°33'0 0.0
2018-Feb-14 19:58N 45°17' E 036°33'0 0.0
2018-Feb-14 19:28N 45°17' E 036°33'0 0.0
2018-Feb-14 18:58N 45°17' E 036°33'0 0.0
2018-Feb-14 18:28N 45°17' E 036°33'0 0.0
2018-Feb-14 17:58N 45°17' E 036°33'0 0.0
2018-Feb-14 17:22N 45°17' E 036°33'0 0.0
2018-Feb-14 16:58N 45°17' E 036°33'0 0.0
2018-Feb-14 16:28N 45°17' E 036°33'0 0.0
2018-Feb-14 15:58N 45°17' E 036°33'0 0.0
2018-Feb-14 15:30N 45°17' E 036°33'2 4.3
2018-Feb-14 15:00N 45°18' E 036°30'1 0.5
2018-Feb-14 14:02N 45°18' E 036°31'0 0.0
2018-Feb-14 13:35N 45°18' E 036°31'0 0.0
2018-Feb-14 13:23N 45°18' E 036°31'0 0.0
2018-Feb-14 12:47N 45°18' E 036°31'0 0.0
2018-Feb-14 12:26N 45°18' E 036°31'0 0.0
2018-Feb-14 11:56N 45°18' E 036°31'0 0.0
2018-Feb-14 11:29N 45°18' E 036°31'0 0.0
2018-Feb-14 10:08N 45°18' E 036°31'0 1.4
2018-Feb-14 09:53N 45°18' E 036°31'1 3.6
2018-Feb-14 09:30N 45°19' E 036°30'1 0.9
2018-Feb-14 08:20N 45°20' E 036°29'0 0.3
2018-Feb-14 07:13N 45°20' E 036°29'0 0.8
2018-Feb-14 07:00N 45°20' E 036°30'0 0.0
2018-Feb-14 06:28N 45°20' E 036°30'0 0.0
2018-Feb-14 06:00N 45°20' E 036°30'1 1.5
2018-Feb-14 05:30N 45°19' E 036°30'3 5.8
2018-Feb-14 05:00N 45°17' E 036°32'0 0.2
2018-Feb-14 04:28N 45°17' E 036°33'0 0.0
2018-Feb-14 04:00N 45°17' E 036°33'0 0.0
2018-Feb-14 03:29N 45°17' E 036°33'0 0.0
2018-Feb-14 03:00N 45°17' E 036°33'0 0.0
2018-Feb-14 02:30N 45°17' E 036°33'0 0.0
2018-Feb-14 01:58N 45°17' E 036°33'0 0.0
2018-Feb-14 01:30N 45°17' E 036°33'0 0.0
2018-Feb-14 00:57N 45°17' E 036°33'0 0.0
2018-Feb-14 00:29N 45°17' E 036°33'0 0.0
2018-Feb-14 00:00N 45°17' E 036°33'0 0.0
2018-Feb-13 23:30N 45°17' E 036°33'0 0.0
2018-Feb-13 23:00N 45°17' E 036°33'0 0.0
2018-Feb-13 22:30N 45°17' E 036°33'0 0.0
2018-Feb-13 22:00N 45°17' E 036°33'0 0.0
2018-Feb-13 21:29N 45°17' E 036°33'0 0.0
2018-Feb-13 21:00N 45°17' E 036°33'0 0.0
2018-Feb-13 20:30N 45°17' E 036°33'0 0.0
2018-Feb-13 20:00N 45°17' E 036°33'0 0.0
2018-Feb-13 19:30N 45°17' E 036°33'0 0.0
2018-Feb-13 19:00N 45°17' E 036°33'0 0.0
2018-Feb-13 18:30N 45°17' E 036°33'0 0.0
2018-Feb-13 18:00N 45°17' E 036°33'0 0.0
2018-Feb-13 17:30N 45°17' E 036°33'0 0.0
2018-Feb-13 16:59N 45°17' E 036°33'0 0.0
2018-Feb-13 16:30N 45°17' E 036°33'0 0.0
2018-Feb-13 16:00N 45°17' E 036°33'0 0.0
2018-Feb-13 15:27N 45°17' E 036°33'0 0.0
2018-Feb-13 15:00N 45°17' E 036°33'0 0.0
2018-Feb-13 14:29N 45°17' E 036°33'0 0.0
2018-Feb-13 14:00N 45°17' E 036°33'0 0.1
2018-Feb-13 13:30N 45°17' E 036°33'0 0.0
2018-Feb-13 13:00N 45°17' E 036°33'0 0.0
2018-Feb-13 12:30N 45°17' E 036°33'0 0.2
2018-Feb-13 12:00N 45°17' E 036°33'0 0.0
2018-Feb-13 11:30N 45°17' E 036°33'0 0.0
2018-Feb-13 11:00N 45°17' E 036°33'0 0.0
2018-Feb-13 10:30N 45°17' E 036°33'0 0.0
2018-Feb-13 10:00N 45°17' E 036°33'0 0.1
2018-Feb-13 09:30N 45°17' E 036°33'2 4.5
2018-Feb-13 08:59N 45°19' E 036°31'1 2.8
2018-Feb-13 08:30N 45°20' E 036°29'0 0.1
2018-Feb-13 08:00N 45°20' E 036°29'0 1.0
2018-Feb-13 07:30N 45°20' E 036°30'1 2.2
2018-Feb-13 06:57N 45°18' E 036°30'0 0.3
2018-Feb-13 06:29N 45°18' E 036°31'1 1.0
2018-Feb-13 05:48N 45°18' E 036°31'1 4.7
2018-Feb-13 05:29N 45°19' E 036°30'1 2.3
2018-Feb-13 05:00N 45°20' E 036°29'0 0.0
2018-Feb-13 04:30N 45°20' E 036°29'0 0.0
2018-Feb-13 03:59N 45°20' E 036°29'0 0.0
2018-Feb-13 03:30N 45°20' E 036°29'0 0.0
2018-Feb-13 02:58N 45°20' E 036°29'0 0.0
2018-Feb-13 02:28N 45°20' E 036°29'0 0.0
2018-Feb-13 01:58N 45°20' E 036°29'0 0.0
2018-Feb-13 01:30N 45°20' E 036°29'0 0.0
2018-Feb-13 00:59N 45°20' E 036°29'0 0.0
2018-Feb-13 00:30N 45°20' E 036°29'0 0.0
2018-Feb-12 23:56N 45°20' E 036°29'0 0.0
2018-Feb-12 23:27N 45°20' E 036°29'0 0.0
2018-Feb-12 23:00N 45°20' E 036°29'0 0.0
2018-Feb-12 22:30N 45°20' E 036°29'0 0.0
2018-Feb-12 21:59N 45°20' E 036°29'0 0.0
2018-Feb-12 21:29N 45°20' E 036°29'0 0.0
2018-Feb-12 21:00N 45°20' E 036°29'0 0.0
2018-Feb-12 20:26N 45°20' E 036°29'0 0.0
2018-Feb-12 19:59N 45°20' E 036°29'0 0.0
2018-Feb-12 19:30N 45°20' E 036°29'0 0.0
2018-Feb-12 18:47N 45°20' E 036°29'0 0.0
2018-Feb-12 18:14N 45°20' E 036°29'0 0.0
2018-Feb-12 18:00N 45°20' E 036°29'0 0.0
2018-Feb-12 17:30N 45°20' E 036°29'0 0.0
2018-Feb-12 16:59N 45°20' E 036°29'0 0.0
2018-Feb-12 16:29N 45°20' E 036°29'0 0.0
2018-Feb-12 15:54N 45°20' E 036°29'0 0.0
2018-Feb-12 15:28N 45°20' E 036°29'0 0.0
2018-Feb-12 14:56N 45°20' E 036°29'0 0.0
2018-Feb-12 14:29N 45°20' E 036°29'0 0.0
2018-Feb-12 14:00N 45°20' E 036°29'0 0.0
2018-Feb-12 13:30N 45°20' E 036°29'0 0.0
2018-Feb-12 12:59N 45°20' E 036°29'0 0.0
2018-Feb-12 12:30N 45°20' E 036°29'0 0.4
2018-Feb-12 12:00N 45°20' E 036°29'1 2.1
2018-Feb-12 11:30N 45°19' E 036°30'3 5.1
2018-Feb-12 10:59N 45°17' E 036°33'1 1.1
2018-Feb-12 10:29N 45°18' E 036°32'1 2.2
2018-Feb-12 10:00N 45°18' E 036°31'1 1.1
2018-Feb-12 09:30N 45°19' E 036°30'0 0.3
2018-Feb-12 08:04N 45°18' E 036°30'0 0.5
2018-Feb-12 08:00N 45°18' E 036°30'2 3.4
2018-Feb-12 07:30N 45°18' E 036°32'1 1.8
2018-Feb-12 07:00N 45°17' E 036°33'0 0.0
2018-Feb-12 06:30N 45°17' E 036°33'0 0.0
2018-Feb-12 06:00N 45°17' E 036°33'0 0.0
2018-Feb-12 05:30N 45°17' E 036°33'0 0.0
2018-Feb-12 05:00N 45°17' E 036°33'0 0.0
2018-Feb-12 04:30N 45°17' E 036°33'0 0.0
2018-Feb-12 04:00N 45°17' E 036°33'0 0.0
2018-Feb-12 03:30N 45°17' E 036°33'0 0.0
2018-Feb-12 03:00N 45°17' E 036°33'0 0.0
2018-Feb-12 02:30N 45°17' E 036°33'0 0.0
2018-Feb-12 02:00N 45°17' E 036°33'0 0.0
2018-Feb-12 01:30N 45°17' E 036°33'0 0.0
2018-Feb-12 01:00N 45°17' E 036°33'0 0.0
2018-Feb-12 00:30N 45°17' E 036°33'0 0.0
2018-Feb-12 00:00N 45°17' E 036°33'0 0.0
2018-Feb-11 23:30N 45°17' E 036°33'0 0.0
2018-Feb-11 23:00N 45°17' E 036°33'0 0.0
2018-Feb-11 22:30N 45°17' E 036°33'0 0.0
2018-Feb-11 22:00N 45°17' E 036°33'0 0.0
2018-Feb-11 21:23N 45°17' E 036°33'0 0.0
2018-Feb-11 21:00N 45°17' E 036°33'0 0.0
2018-Feb-11 20:30N 45°17' E 036°33'0 0.0
2018-Feb-11 20:00N 45°17' E 036°33'0 0.0
2018-Feb-11 19:30N 45°17' E 036°33'0 0.0
2018-Feb-11 19:00N 45°17' E 036°33'0 0.0
2018-Feb-11 18:30N 45°17' E 036°33'0 0.0
2018-Feb-11 18:00N 45°17' E 036°33'0 0.0
2018-Feb-11 17:30N 45°17' E 036°33'0 0.0
2018-Feb-11 17:00N 45°17' E 036°33'0 0.0
2018-Feb-11 16:30N 45°17' E 036°33'0 0.0
2018-Feb-11 15:55N 45°17' E 036°33'0 0.0
2018-Feb-11 15:30N 45°17' E 036°33'0 0.0
2018-Feb-11 14:59N 45°17' E 036°33'0 0.0
2018-Feb-11 14:30N 45°17' E 036°33'0 0.0
2018-Feb-11 14:00N 45°17' E 036°33'0 0.0
2018-Feb-11 13:30N 45°17' E 036°33'0 0.0
2018-Feb-11 13:00N 45°17' E 036°33'0 0.0
2018-Feb-11 12:30N 45°17' E 036°33'0 0.0
2018-Feb-11 12:00N 45°17' E 036°33'1 1.3
2018-Feb-11 11:30N 45°18' E 036°33'3 6.1
2018-Feb-11 11:00N 45°20' E 036°29'0 0.2
2018-Feb-11 09:22N 45°20' E 036°29'0 0.3
2018-Feb-11 08:59N 45°20' E 036°29'3 6.5
2018-Feb-11 08:30N 45°18' E 036°32'1 2.2
2018-Feb-11 08:00N 45°17' E 036°33'2 4.6
2018-Feb-11 07:30N 45°18' E 036°30'0 0.9
2018-Feb-11 07:00N 45°18' E 036°31'0 0.1
2018-Feb-11 06:29N 45°18' E 036°31'0 0.0
2018-Feb-11 05:55N 45°18' E 036°31'0 0.9
2018-Feb-11 05:30N 45°18' E 036°31'2 3.3
2018-Feb-11 05:00N 45°17' E 036°33'0 0.0
2018-Feb-11 04:30N 45°17' E 036°33'0 0.0
2018-Feb-11 04:00N 45°17' E 036°33'0 0.0
2018-Feb-11 03:30N 45°17' E 036°33'0 0.0
2018-Feb-11 03:00N 45°17' E 036°33'0 0.0
2018-Feb-11 02:30N 45°17' E 036°33'0 0.0
2018-Feb-11 02:00N 45°17' E 036°33'0 0.0
2018-Feb-11 01:30N 45°17' E 036°33'0 0.0
2018-Feb-11 01:00N 45°17' E 036°33'0 0.0
2018-Feb-11 00:30N 45°17' E 036°33'0 0.0
2018-Feb-11 00:00N 45°17' E 036°33'0 0.0
2018-Feb-10 23:30N 45°17' E 036°33'0 0.0
2018-Feb-10 23:00N 45°17' E 036°33'0 0.0
2018-Feb-10 22:30N 45°17' E 036°33'0 0.0
2018-Feb-10 22:00N 45°17' E 036°33'0 0.0
2018-Feb-10 21:30N 45°17' E 036°33'0 0.0
2018-Feb-10 21:00N 45°17' E 036°33'0 0.0
2018-Feb-10 20:30N 45°17' E 036°33'0 0.0
2018-Feb-10 20:00N 45°17' E 036°33'0 0.0
2018-Feb-10 19:30N 45°17' E 036°33'0 0.0
2018-Feb-10 19:00N 45°17' E 036°33'0 0.0
2018-Feb-10 18:30N 45°17' E 036°33'0 0.0
2018-Feb-10 18:00N 45°17' E 036°33'0 0.0
2018-Feb-10 17:30N 45°17' E 036°33'0 0.0
2018-Feb-10 17:00N 45°17' E 036°33'0 0.0
2018-Feb-10 16:30N 45°17' E 036°33'0 0.0
2018-Feb-10 16:00N 45°17' E 036°33'0 0.0
2018-Feb-10 15:30N 45°17' E 036°33'0 0.0
2018-Feb-10 15:00N 45°17' E 036°33'0 0.0
2018-Feb-10 14:30N 45°17' E 036°33'0 0.0
2018-Feb-10 14:00N 45°17' E 036°33'0 0.0
2018-Feb-10 13:30N 45°17' E 036°33'3 4.4
2018-Feb-10 12:49N 45°19' E 036°30'1 2.7
2018-Feb-10 12:26N 45°20' E 036°29'0 0.0
2018-Feb-10 11:52N 45°20' E 036°29'0 0.0
2018-Feb-10 11:28N 45°20' E 036°29'0 0.0
2018-Feb-10 11:00N 45°20' E 036°29'0 0.0
2018-Feb-10 10:30N 45°20' E 036°29'0 0.0
2018-Feb-10 09:58N 45°20' E 036°29'0 0.0
2018-Feb-10 09:30N 45°20' E 036°29'0 0.0
2018-Feb-10 09:00N 45°20' E 036°29'0 0.0
2018-Feb-10 08:30N 45°20' E 036°29'0 0.0
2018-Feb-10 08:00N 45°20' E 036°29'0 0.0
2018-Feb-10 07:30N 45°20' E 036°29'1 1.8
2018-Feb-10 07:00N 45°20' E 036°30'3 6.0
2018-Feb-10 06:30N 45°17' E 036°33'0 0.8
2018-Feb-10 06:00N 45°17' E 036°33'0 0.0
2018-Feb-10 05:30N 45°17' E 036°33'0 0.0
2018-Feb-10 05:00N 45°17' E 036°33'0 0.0
2018-Feb-10 04:30N 45°17' E 036°33'0 0.0
2018-Feb-10 04:00N 45°17' E 036°33'0 0.1
2018-Feb-10 03:30N 45°17' E 036°33'0 0.0
2018-Feb-10 03:00N 45°17' E 036°33'0 0.0
2018-Feb-10 02:30N 45°17' E 036°33'0 0.1
2018-Feb-10 02:00N 45°17' E 036°33'0 0.1
2018-Feb-10 01:30N 45°17' E 036°33'0 0.0
2018-Feb-10 01:00N 45°17' E 036°33'0 0.0
2018-Feb-10 00:30N 45°17' E 036°33'0 0.0
2018-Feb-10 00:00N 45°17' E 036°33'0 0.0
2018-Feb-09 23:30N 45°17' E 036°33'0 0.0
2018-Feb-09 23:00N 45°17' E 036°33'0 0.0
2018-Feb-09 22:45N 45°17' E 036°33'0 0.0
2018-Feb-09 22:00N 45°17' E 036°33'  

Dump ship's entire track history